createdAt,value
2024-04-10T00:01:14.022Z,80705.34
2024-04-10T00:02:55.491Z,80700.53
2024-04-10T00:04:37.056Z,80703.84
2024-04-10T00:06:18.600Z,80704.47
2024-04-10T00:08:00.242Z,80706.78
2024-04-10T00:09:41.696Z,80703.31
2024-04-10T00:11:23.264Z,80703.28
2024-04-10T00:13:04.747Z,80692.63
2024-04-10T00:14:46.174Z,80696.41
2024-04-10T00:16:27.606Z,80701.19
2024-04-10T00:18:09.188Z,80696.53
2024-04-10T00:19:50.828Z,80691.63
2024-04-10T00:21:32.312Z,80692.56
2024-04-10T00:23:13.795Z,80691.03
2024-04-10T00:24:55.290Z,80695.63
2024-04-10T00:26:36.799Z,80696.56
2024-04-10T00:28:18.282Z,80699.91
2024-04-10T00:29:59.751Z,80698.88
2024-04-10T00:31:41.180Z,80682.91
2024-04-10T00:33:22.800Z,80685.22
2024-04-10T00:35:04.326Z,80679.16
2024-04-10T00:36:45.804Z,80686.66
2024-04-10T00:38:27.387Z,80681.03
2024-04-10T00:40:08.938Z,80675.66
2024-04-10T00:41:50.354Z,80672.50
2024-04-10T00:43:31.819Z,80675.28
2024-04-10T00:45:13.286Z,80685.03
2024-04-10T00:46:54.837Z,80685.91
2024-04-10T00:48:36.517Z,80681.06
2024-04-10T00:50:18.209Z,80691.00
2024-04-10T00:51:59.678Z,80693.44
2024-04-10T00:53:41.132Z,80686.56
2024-04-10T00:55:22.560Z,80691.44
2024-04-10T00:57:04.031Z,80682.78
2024-04-10T00:58:45.460Z,80681.50
2024-04-10T01:00:26.902Z,80678.78
2024-04-10T01:02:08.458Z,80675.72
2024-04-10T01:03:50.218Z,80676.69
2024-04-10T01:05:31.811Z,80674.47
2024-04-10T01:07:13.357Z,80681.63
2024-04-10T01:08:54.802Z,80681.03
2024-04-10T01:10:36.315Z,80674.84
2024-04-10T01:12:18.028Z,80677.06
2024-04-10T01:13:59.595Z,80677.41
2024-04-10T01:15:41.097Z,80678.91
2024-04-10T01:17:22.725Z,80671.97
2024-04-10T01:19:07.048Z,80667.03
2024-04-10T01:20:48.535Z,80663.06
2024-04-10T01:22:30.018Z,80662.59
2024-04-10T01:24:11.500Z,80672.41
2024-04-10T01:25:53.007Z,80672.59
2024-04-10T01:27:34.576Z,80669.81
2024-04-10T01:29:16.066Z,80685.00
2024-04-10T01:30:57.633Z,80670.41
2024-04-10T01:32:39.271Z,80673.75
2024-04-10T01:34:20.956Z,80674.94
2024-04-10T01:36:02.471Z,80669.59
2024-04-10T01:37:43.915Z,80678.25
2024-04-10T01:39:25.363Z,80671.00
2024-04-10T01:41:06.838Z,80675.81
2024-04-10T01:42:48.305Z,80674.91
2024-04-10T01:44:29.833Z,80681.22
2024-04-10T01:46:11.342Z,80685.16
2024-04-10T01:47:53.124Z,80677.13
2024-04-10T01:49:34.790Z,80671.22
2024-04-10T01:51:17.475Z,80672.75
2024-04-10T01:52:59.057Z,80677.25
2024-04-10T01:54:40.495Z,80672.81
2024-04-10T01:56:21.952Z,80664.72
2024-04-10T01:58:03.441Z,80670.41
2024-04-10T01:59:44.864Z,80668.13
2024-04-10T02:01:26.320Z,80672.13
2024-04-10T02:03:07.799Z,80676.56
2024-04-10T02:04:49.326Z,80672.28
2024-04-10T02:06:30.804Z,80666.38
2024-04-10T02:08:12.263Z,80656.03
2024-04-10T02:09:53.754Z,80658.13
2024-04-10T02:11:35.294Z,80651.91
2024-04-10T02:13:16.814Z,80655.47
2024-04-10T02:14:58.338Z,80661.59
2024-04-10T02:16:39.789Z,80666.59
2024-04-10T02:18:21.409Z,80662.56
2024-04-10T02:20:02.970Z,80666.50
2024-04-10T02:21:44.470Z,80665.69
2024-04-10T02:23:26.002Z,80666.59
2024-04-10T02:25:07.650Z,80666.59
2024-04-10T02:26:49.117Z,80672.22
2024-04-10T02:28:30.572Z,80670.09
2024-04-10T02:30:12.043Z,80672.38
2024-04-10T02:31:53.547Z,80673.13
2024-04-10T02:33:35.124Z,80672.47
2024-04-10T02:35:16.635Z,80673.16
2024-04-10T02:36:58.124Z,80663.81
2024-04-10T02:38:39.653Z,80659.59
2024-04-10T02:40:21.138Z,80652.91
2024-04-10T02:42:02.599Z,80651.22
2024-04-10T02:43:44.138Z,80650.00
2024-04-10T02:45:25.724Z,80646.56
2024-04-10T02:47:07.280Z,80652.34
2024-04-10T02:48:48.871Z,80660.47
2024-04-10T02:50:30.645Z,80655.56
2024-04-10T02:52:12.369Z,80660.97
2024-04-10T02:53:53.829Z,80665.34
2024-04-10T02:55:35.317Z,80666.63
2024-04-10T02:57:16.747Z,80672.69
2024-04-10T02:58:58.294Z,80673.25
2024-04-10T03:00:39.809Z,80674.25
2024-04-10T03:02:21.359Z,80679.22
2024-04-10T03:04:02.847Z,80681.94
2024-04-10T03:05:44.354Z,80678.84
2024-04-10T03:07:25.806Z,80677.19
2024-04-10T03:09:07.247Z,80678.41
2024-04-10T03:10:48.765Z,80676.94
2024-04-10T03:12:30.289Z,80674.28
2024-04-10T03:14:11.803Z,80676.84
2024-04-10T03:15:53.297Z,80677.28
2024-04-10T03:17:34.840Z,80671.81
2024-04-10T03:19:16.579Z,80669.56
2024-04-10T03:20:58.135Z,80669.22
2024-04-10T03:22:39.570Z,80667.91
2024-04-10T03:24:21.012Z,80666.44
2024-04-10T03:26:02.598Z,80660.03
2024-04-10T03:27:44.128Z,80667.22
2024-04-10T03:29:25.663Z,80668.56
2024-04-10T03:31:07.422Z,80672.41
2024-04-10T03:32:49.075Z,80666.38
2024-04-10T03:34:30.715Z,80657.81
2024-04-10T03:36:12.216Z,80663.56
2024-04-10T03:37:53.745Z,80660.44
2024-04-10T03:39:35.311Z,80670.22
2024-04-10T03:41:16.847Z,80672.88
2024-04-10T03:42:58.350Z,80674.66
2024-04-10T03:44:39.933Z,80669.94
2024-04-10T03:46:21.456Z,80673.63
2024-04-10T03:48:03.184Z,80660.34
2024-04-10T03:49:44.769Z,80670.84
2024-04-10T03:51:26.238Z,80668.84
2024-04-10T03:53:07.771Z,80677.63
2024-04-10T03:54:49.226Z,80671.88
2024-04-10T03:56:30.867Z,80670.91
2024-04-10T03:58:12.471Z,80675.63
2024-04-10T03:59:53.924Z,80675.94
2024-04-10T04:01:35.393Z,80685.47
2024-04-10T04:03:17.003Z,80689.75
2024-04-10T04:04:58.766Z,80695.16
2024-04-10T04:06:40.218Z,80688.81
2024-04-10T04:08:21.738Z,80689.81
2024-04-10T04:10:03.209Z,80685.28
2024-04-10T04:11:53.912Z,80691.91
2024-04-10T04:13:49.732Z,80691.25
2024-04-10T04:15:37.612Z,80686.19
2024-04-10T04:17:19.268Z,80679.13
2024-04-10T04:19:00.841Z,80679.56
2024-04-10T04:20:42.330Z,80685.72
2024-04-10T04:22:23.799Z,80701.56
2024-04-10T04:24:05.291Z,80696.97
2024-04-10T04:25:46.761Z,80686.88
2024-04-10T04:27:28.175Z,80684.97
2024-04-10T04:29:09.697Z,80685.25
2024-04-10T04:30:51.198Z,80677.81
2024-04-10T04:32:32.831Z,80683.81
2024-04-10T04:34:14.461Z,80687.78
2024-04-10T04:35:56.003Z,80687.72
2024-04-10T04:37:37.470Z,80686.50
2024-04-10T04:39:18.938Z,80682.78
2024-04-10T04:41:00.402Z,80682.03
2024-04-10T04:42:41.895Z,80682.78
2024-04-10T04:44:23.410Z,80684.97
2024-04-10T04:46:04.874Z,80678.78
2024-04-10T04:47:46.416Z,80684.06
2024-04-10T04:49:27.972Z,80689.41
2024-04-10T04:51:09.426Z,80690.00
2024-04-10T04:52:50.973Z,80696.06
2024-04-10T04:54:32.494Z,80716.09
2024-04-10T04:56:13.974Z,80719.16
2024-04-10T04:57:55.439Z,80719.59
2024-04-10T04:59:36.971Z,80722.50
2024-04-10T05:01:18.510Z,80719.72
2024-04-10T05:03:00.230Z,80718.06
2024-04-10T05:04:41.932Z,80715.69
2024-04-10T05:06:23.400Z,80721.13
2024-04-10T05:08:04.940Z,80721.34
2024-04-10T05:09:46.501Z,80717.88
2024-04-10T05:11:28.055Z,80722.06
2024-04-10T05:13:09.550Z,80717.91
2024-04-10T05:14:51.064Z,80719.72
2024-04-10T05:16:32.531Z,80731.53
2024-04-10T05:18:14.028Z,80727.81
2024-04-10T05:19:55.596Z,80724.75
2024-04-10T05:21:37.051Z,80716.88
2024-04-10T05:23:18.567Z,80722.88
2024-04-10T05:25:00.109Z,80724.63
2024-04-10T05:26:41.667Z,80734.13
2024-04-10T05:28:23.134Z,80735.25
2024-04-10T05:30:04.629Z,80720.72
2024-04-10T05:31:46.052Z,80718.94
2024-04-10T05:33:27.540Z,80719.72
2024-04-10T05:35:09.127Z,80712.13
2024-04-10T05:36:50.575Z,80713.44
2024-04-10T05:38:32.109Z,80710.25
2024-04-10T05:40:13.703Z,80711.81
2024-04-10T05:41:56.332Z,80711.91
2024-04-10T05:43:37.755Z,80725.09
2024-04-10T05:45:19.295Z,80725.59
2024-04-10T05:47:00.880Z,80717.25
2024-04-10T05:48:42.519Z,80722.28
2024-04-10T05:50:24.231Z,80733.16
2024-04-10T05:52:05.800Z,80735.53
2024-04-10T05:53:47.296Z,80728.03
2024-04-10T05:55:28.784Z,80717.16
2024-04-10T05:57:10.294Z,80715.94
2024-04-10T05:58:51.787Z,80722.28
2024-04-10T06:00:33.316Z,80724.28
2024-04-10T06:02:14.927Z,80717.94
2024-04-10T06:03:56.745Z,80715.38
2024-04-10T06:05:38.441Z,80700.25
2024-04-10T06:07:20.013Z,80705.97
2024-04-10T06:09:01.459Z,80716.44
2024-04-10T06:10:42.940Z,80727.88
2024-04-10T06:12:24.728Z,80734.66
2024-04-10T06:14:06.427Z,80737.34
2024-04-10T06:15:47.911Z,80738.69
2024-04-10T06:17:29.577Z,80728.94
2024-04-10T06:19:11.327Z,80725.84
2024-04-10T06:20:52.776Z,80737.56
2024-04-10T06:22:34.230Z,80737.22
2024-04-10T06:24:15.936Z,80740.41
2024-04-10T06:25:57.600Z,80750.13
2024-04-10T06:27:39.067Z,80747.16
2024-04-10T06:29:20.561Z,80736.97
2024-04-10T06:31:02.126Z,80742.50
2024-04-10T06:32:43.824Z,80743.59
2024-04-10T06:34:25.584Z,80739.28
2024-04-10T06:36:07.168Z,80739.00
2024-04-10T06:37:48.624Z,80733.88
2024-04-10T06:39:30.269Z,80733.78
2024-04-10T06:41:11.798Z,80749.41
2024-04-10T06:42:53.335Z,80735.34
2024-04-10T06:44:34.953Z,80725.09
2024-04-10T06:46:16.426Z,80724.41
2024-04-10T06:47:58.022Z,80717.50
2024-04-10T06:49:39.730Z,80713.56
2024-04-10T06:51:21.211Z,80711.25
2024-04-10T06:53:02.920Z,80696.78
2024-04-10T06:54:44.662Z,80700.09
2024-04-10T06:56:26.249Z,80698.19
2024-04-10T06:58:07.712Z,80698.09
2024-04-10T06:59:49.223Z,80691.88
2024-04-10T07:01:30.767Z,80701.31
2024-04-10T07:03:12.311Z,80691.91
2024-04-10T07:04:56.688Z,80700.91
2024-04-10T07:06:38.770Z,80705.41
2024-04-10T07:08:20.314Z,80707.47
2024-04-10T07:10:01.897Z,80711.06
2024-04-10T07:11:43.506Z,80719.19
2024-04-10T07:13:25.060Z,80715.69
2024-04-10T07:15:06.540Z,80711.84
2024-04-10T07:16:48.129Z,80717.56
2024-04-10T07:18:29.682Z,80713.13
2024-04-10T07:20:11.281Z,80714.69
2024-04-10T07:21:52.831Z,80718.34
2024-04-10T07:23:34.408Z,80720.59
2024-04-10T07:25:16.100Z,80722.66
2024-04-10T07:26:57.544Z,80713.41
2024-04-10T07:28:39.007Z,80717.34
2024-04-10T07:30:20.470Z,80714.72
2024-04-10T07:32:02.000Z,80711.94
2024-04-10T07:33:43.519Z,80713.00
2024-04-10T07:35:25.053Z,80721.59
2024-04-10T07:37:06.508Z,80723.97
2024-04-10T07:38:47.973Z,80730.09
2024-04-10T07:40:29.425Z,80721.84
2024-04-10T07:42:10.914Z,80733.41
2024-04-10T07:43:52.431Z,80723.47
2024-04-10T07:45:33.952Z,80724.50
2024-04-10T07:47:15.531Z,80730.16
2024-04-10T07:48:57.483Z,80727.63
2024-04-10T07:50:39.222Z,80724.50
2024-04-10T07:52:20.728Z,80725.44
2024-04-10T07:54:02.199Z,80722.84
2024-04-10T07:55:45.780Z,80722.34
2024-04-10T07:57:27.332Z,80717.94
2024-04-10T07:59:08.905Z,80718.09
2024-04-10T08:00:50.454Z,80719.19
2024-04-10T08:02:31.982Z,80719.75
2024-04-10T08:04:13.599Z,80717.94
2024-04-10T08:05:55.210Z,80723.09
2024-04-10T08:07:36.689Z,80721.50
2024-04-10T08:09:18.136Z,80728.00
2024-04-10T08:10:59.718Z,80724.09
2024-04-10T08:12:41.240Z,80731.84
2024-04-10T08:14:22.733Z,80725.34
2024-04-10T08:16:04.351Z,80733.19
2024-04-10T08:17:45.880Z,80722.75
2024-04-10T08:19:27.399Z,80717.59
2024-04-10T08:21:08.863Z,80726.25
2024-04-10T08:22:50.376Z,80729.50
2024-04-10T08:24:31.890Z,80735.00
2024-04-10T08:26:13.345Z,80735.81
2024-04-10T08:27:54.784Z,80733.78
2024-04-10T08:29:38.678Z,80738.00
2024-04-10T08:31:20.397Z,80737.25
2024-04-10T08:33:01.971Z,80736.84
2024-04-10T08:34:43.654Z,80741.75
2024-04-10T08:36:26.033Z,80741.56
2024-04-10T08:38:07.928Z,80749.22
2024-04-10T08:39:49.456Z,80741.53
2024-04-10T08:41:30.903Z,80742.91
2024-04-10T08:43:12.482Z,80741.53
2024-04-10T08:44:53.968Z,80741.81
2024-04-10T08:46:35.447Z,80746.13
2024-04-10T08:48:17.069Z,80751.88
2024-04-10T08:49:58.583Z,80750.34
2024-04-10T08:51:40.108Z,80751.25
2024-04-10T08:53:21.542Z,80752.44
2024-04-10T08:55:03.130Z,80755.56
2024-04-10T08:56:44.634Z,80748.63
2024-04-10T08:58:26.061Z,80752.03
2024-04-10T09:00:07.533Z,80748.97
2024-04-10T09:01:50.829Z,80751.25
2024-04-10T09:03:32.632Z,80748.44
2024-04-10T09:05:14.404Z,80749.31
2024-04-10T09:06:56.044Z,80757.91
2024-04-10T09:08:37.555Z,80756.44
2024-04-10T09:10:19.072Z,80758.22
2024-04-10T09:12:00.640Z,80758.28
2024-04-10T09:13:42.120Z,80767.38
2024-04-10T09:15:23.605Z,80757.19
2024-04-10T09:17:05.261Z,80743.53
2024-04-10T09:18:46.856Z,80740.88
2024-04-10T09:20:28.319Z,80742.44
2024-04-10T09:22:09.863Z,80737.06
2024-04-10T09:23:51.364Z,80748.19
2024-04-10T09:25:32.838Z,80745.72
2024-04-10T09:27:14.290Z,80746.34
2024-04-10T09:28:55.772Z,80740.28
2024-04-10T09:30:37.253Z,80745.47
2024-04-10T09:32:18.781Z,80746.53
2024-04-10T09:34:00.464Z,80743.66
2024-04-10T09:35:42.091Z,80745.25
2024-04-10T09:37:23.586Z,80740.47
2024-04-10T09:39:05.110Z,80744.03
2024-04-10T09:40:46.582Z,80743.19
2024-04-10T09:42:28.038Z,80735.38
2024-04-10T09:44:09.589Z,80744.53
2024-04-10T09:45:51.053Z,80738.53
2024-04-10T09:47:32.773Z,80736.97
2024-04-10T09:49:14.441Z,80731.84
2024-04-10T09:50:56.008Z,80736.69
2024-04-10T09:52:37.516Z,80732.84
2024-04-10T09:54:18.975Z,80735.44
2024-04-10T09:56:00.437Z,80738.28
2024-04-10T09:57:41.906Z,80737.03
2024-04-10T09:59:23.403Z,80735.78
2024-04-10T10:01:05.086Z,80732.78
2024-04-10T10:02:46.706Z,80745.84
2024-04-10T10:04:28.288Z,80742.38
2024-04-10T10:06:10.147Z,80756.44
2024-04-10T10:07:51.806Z,80755.25
2024-04-10T10:09:33.316Z,80753.75
2024-04-10T10:11:14.869Z,80763.81
2024-04-10T10:12:56.427Z,80766.31
2024-04-10T10:14:37.929Z,80761.13
2024-04-10T10:16:19.445Z,80759.03
2024-04-10T10:18:03.898Z,80769.34
2024-04-10T10:19:46.931Z,80770.72
2024-04-10T10:21:28.400Z,80771.56
2024-04-10T10:23:12.388Z,80776.09
2024-04-10T10:24:54.360Z,80781.78
2024-04-10T10:26:35.829Z,80778.63
2024-04-10T10:28:18.206Z,80768.50
2024-04-10T10:30:00.850Z,80783.03
2024-04-10T10:31:42.309Z,80780.34
2024-04-10T10:33:23.959Z,80783.63
2024-04-10T10:35:06.895Z,80786.56
2024-04-10T10:36:49.509Z,80793.50
2024-04-10T10:38:30.972Z,80795.56
2024-04-10T10:40:12.488Z,80791.13
2024-04-10T10:41:54.041Z,80794.41
2024-04-10T10:43:35.527Z,80797.50
2024-04-10T10:45:16.979Z,80802.00
2024-04-10T10:46:58.660Z,80806.13
2024-04-10T10:48:40.258Z,80802.19
2024-04-10T10:50:21.788Z,80804.84
2024-04-10T10:52:03.251Z,80807.28
2024-04-10T10:53:44.744Z,80808.47
2024-04-10T10:55:26.222Z,80815.97
2024-04-10T10:57:07.730Z,80813.38
2024-04-10T10:58:49.201Z,80816.84
2024-04-10T11:00:30.694Z,80821.94
2024-04-10T11:02:12.199Z,80813.94
2024-04-10T11:03:53.915Z,80812.00
2024-04-10T11:05:35.665Z,80809.22
2024-04-10T11:07:17.178Z,80815.47
2024-04-10T11:08:58.773Z,80795.25
2024-04-10T11:10:40.326Z,80793.16
2024-04-10T11:12:21.851Z,80801.53
2024-04-10T11:14:03.383Z,80800.63
2024-04-10T11:15:44.872Z,80794.38
2024-04-10T11:17:26.422Z,80792.75
2024-04-10T11:19:07.955Z,80782.41
2024-04-10T11:20:49.488Z,80775.53
2024-04-10T11:22:31.011Z,80777.00
2024-04-10T11:24:12.555Z,80776.25
2024-04-10T11:25:54.007Z,80774.91
2024-04-10T11:27:35.456Z,80764.31
2024-04-10T11:29:16.984Z,80768.06
2024-04-10T11:30:58.462Z,80764.91
2024-04-10T11:32:39.979Z,80760.84
2024-04-10T11:34:21.683Z,80760.16
2024-04-10T11:36:03.290Z,80755.81
2024-04-10T11:37:44.762Z,80760.13
2024-04-10T11:39:26.248Z,80752.00
2024-04-10T11:41:08.746Z,80748.28
2024-04-10T11:42:51.011Z,80751.41
2024-04-10T11:44:32.877Z,80744.63
2024-04-10T11:46:14.517Z,80747.72
2024-04-10T11:47:56.123Z,80735.25
2024-04-10T11:49:37.774Z,80738.84
2024-04-10T11:51:20.358Z,80733.34
2024-04-10T11:53:02.002Z,80734.75
2024-04-10T11:54:43.652Z,80743.84
2024-04-10T11:56:25.293Z,80745.69
2024-04-10T11:58:08.665Z,80754.56
2024-04-10T11:59:51.705Z,80756.34
2024-04-10T12:01:33.354Z,80756.13
2024-04-10T12:03:15.005Z,80747.69
2024-04-10T12:04:56.670Z,80746.78
2024-04-10T12:06:38.181Z,80744.69
2024-04-10T12:08:19.713Z,80743.66
2024-04-10T12:10:01.416Z,80736.59
2024-04-10T12:11:43.082Z,80729.59
2024-04-10T12:13:24.713Z,80724.81
2024-04-10T12:15:06.262Z,80717.66
2024-04-10T12:16:47.829Z,80721.41
2024-04-10T12:18:29.488Z,80715.94
2024-04-10T12:20:11.355Z,80704.09
2024-04-10T12:21:53.092Z,80696.44
2024-04-10T12:23:34.793Z,80689.94
2024-04-10T12:25:16.279Z,80682.72
2024-04-10T12:26:57.845Z,80677.97
2024-04-10T12:28:39.398Z,80678.63
2024-04-10T12:30:20.842Z,80681.50
2024-04-10T12:32:03.510Z,80677.78
2024-04-10T12:33:46.641Z,80692.69
2024-04-10T12:35:28.375Z,80680.91
2024-04-10T12:37:09.842Z,80672.44
2024-04-10T12:38:51.359Z,80664.94
2024-04-10T12:40:32.898Z,80664.34
2024-04-10T12:42:14.381Z,80671.44
2024-04-10T12:43:55.851Z,80672.25
2024-04-10T12:45:37.305Z,80667.69
2024-04-10T12:47:19.223Z,80665.78
2024-04-10T12:49:01.321Z,80663.59
2024-04-10T12:50:43.052Z,80662.66
2024-04-10T12:52:24.593Z,80667.56
2024-04-10T12:54:06.156Z,80664.44
2024-04-10T12:55:47.710Z,80681.16
2024-04-10T12:57:29.133Z,80686.59
2024-04-10T12:59:10.618Z,80691.06
2024-04-10T13:00:54.176Z,80688.09
2024-04-10T13:02:40.804Z,80696.88
2024-04-10T13:04:22.564Z,80697.91
2024-04-10T13:06:04.328Z,80717.97
2024-04-10T13:07:45.870Z,80725.16
2024-04-10T13:09:27.514Z,80732.56
2024-04-10T13:11:09.140Z,80744.06
2024-04-10T13:12:50.668Z,80745.41
2024-04-10T13:14:32.307Z,80749.69
2024-04-10T13:16:13.842Z,80751.47
2024-04-10T13:17:55.614Z,80754.09
2024-04-10T13:19:37.186Z,80755.47
2024-04-10T13:21:18.721Z,80764.75
2024-04-10T13:23:00.216Z,80762.97
2024-04-10T13:24:41.670Z,80772.47
2024-04-10T13:26:23.143Z,80776.47
2024-04-10T13:28:04.632Z,80780.78
2024-04-10T13:29:46.148Z,80788.19
2024-04-10T13:31:27.621Z,80796.81
2024-04-10T13:33:09.207Z,80795.41
2024-04-10T13:34:50.959Z,80795.53
2024-04-10T13:36:32.836Z,80796.50
2024-04-10T13:38:14.386Z,80788.97
2024-04-10T13:39:55.997Z,80793.94
2024-04-10T13:41:38.102Z,80795.53
2024-04-10T13:43:19.916Z,80798.31
2024-04-10T13:45:01.709Z,80797.88
2024-04-10T13:46:43.334Z,80793.00
2024-04-10T13:48:24.953Z,80796.06
2024-04-10T13:50:08.597Z,80797.50
2024-04-10T13:51:51.399Z,80799.81
2024-04-10T13:53:32.959Z,80805.03
2024-04-10T13:55:14.548Z,80805.28
2024-04-10T13:56:56.123Z,80801.28
2024-04-10T13:58:37.691Z,80801.34
2024-04-10T14:00:19.334Z,80803.50
2024-04-10T14:02:00.927Z,80799.44
2024-04-10T14:03:42.625Z,80801.88
2024-04-10T14:05:24.438Z,80803.88
2024-04-10T14:07:06.081Z,80797.31
2024-04-10T14:08:47.775Z,80799.31
2024-04-10T14:10:29.348Z,80801.53
2024-04-10T14:12:10.961Z,80801.28
2024-04-10T14:13:52.679Z,80799.81
2024-04-10T14:15:34.238Z,80790.72
2024-04-10T14:17:22.973Z,80796.19
2024-04-10T14:19:09.790Z,80787.97
2024-04-10T14:20:51.546Z,80793.72
2024-04-10T14:22:33.021Z,80792.28
2024-04-10T14:24:14.745Z,80799.97
2024-04-10T14:25:56.384Z,80796.72
2024-04-10T14:27:38.006Z,80798.91
2024-04-10T14:29:19.507Z,80803.94
2024-04-10T14:31:01.069Z,80810.94
2024-04-10T14:32:42.838Z,80805.16
2024-04-10T14:34:24.707Z,80823.81
2024-04-10T14:36:06.671Z,80818.56
2024-04-10T14:37:48.257Z,80830.84
2024-04-10T14:39:29.767Z,80824.25
2024-04-10T14:41:11.205Z,80821.00
2024-04-10T14:42:52.675Z,80818.31
2024-04-10T14:44:34.201Z,80819.84
2024-04-10T14:46:18.423Z,80808.84
2024-04-10T14:48:01.994Z,80818.69
2024-04-10T14:49:43.498Z,80810.22
2024-04-10T14:51:24.950Z,80809.50
2024-04-10T14:53:06.390Z,80810.16
2024-04-10T14:54:47.921Z,80800.97
2024-04-10T14:56:29.462Z,80812.13
2024-04-10T14:58:10.956Z,80805.66
2024-04-10T14:59:52.434Z,80805.47
2024-04-10T15:01:33.958Z,80808.75
2024-04-10T15:03:15.474Z,80812.22
2024-04-10T15:04:57.103Z,80818.97
2024-04-10T15:06:38.803Z,80814.16
2024-04-10T15:08:20.308Z,80814.31
2024-04-10T15:10:01.786Z,80812.25
2024-04-10T15:11:43.505Z,80812.63
2024-04-10T15:13:25.032Z,80816.00
2024-04-10T15:15:06.691Z,80815.31
2024-04-10T15:16:48.329Z,80812.00
2024-04-10T15:18:30.001Z,80816.44
2024-04-10T15:20:11.643Z,80805.63
2024-04-10T15:21:53.159Z,80814.69
2024-04-10T15:23:34.648Z,80811.28
2024-04-10T15:25:16.122Z,80810.72
2024-04-10T15:26:57.708Z,80816.44
2024-04-10T15:28:39.287Z,80816.25
2024-04-10T15:30:20.743Z,80820.81
2024-04-10T15:32:02.212Z,80816.44
2024-04-10T15:33:44.033Z,80811.47
2024-04-10T15:35:25.650Z,80825.22
2024-04-10T15:37:07.167Z,80815.56
2024-04-10T15:38:48.703Z,80836.31
2024-04-10T15:40:30.298Z,80829.53
2024-04-10T15:42:11.807Z,80828.09
2024-04-10T15:43:53.263Z,80831.03
2024-04-10T15:45:34.898Z,80839.25
2024-04-10T15:47:16.770Z,80847.97
2024-04-10T15:49:00.639Z,80849.63
2024-04-10T15:50:43.759Z,80856.22
2024-04-10T15:54:12.351Z,80856.28
2024-04-10T15:55:54.037Z,80863.88
2024-04-10T15:57:35.504Z,80869.69
2024-04-10T15:59:16.972Z,80869.97
2024-04-10T16:01:00.606Z,80876.53
2024-04-10T16:02:42.350Z,80877.47
2024-04-10T16:04:23.920Z,80874.97
2024-04-10T16:06:05.538Z,80878.53
2024-04-10T16:07:47.010Z,80878.00
2024-04-10T16:09:28.473Z,80883.50
2024-04-10T16:11:10.050Z,80888.84
2024-04-10T16:12:51.540Z,80888.72
2024-04-10T16:14:33.075Z,80897.13
2024-04-10T16:16:14.613Z,80894.81
2024-04-10T16:17:56.227Z,80898.25
2024-04-10T16:19:37.815Z,80905.13
2024-04-10T16:21:19.263Z,80907.53
2024-04-10T16:23:00.740Z,80906.00
2024-04-10T16:24:42.181Z,80908.00
2024-04-10T16:26:23.723Z,80912.69
2024-04-10T16:28:05.231Z,80909.31
2024-04-10T16:29:46.729Z,80911.84
2024-04-10T16:31:28.220Z,80917.03
2024-04-10T16:33:09.866Z,80914.00
2024-04-10T16:34:51.570Z,80921.56
2024-04-10T16:36:33.097Z,80927.94
2024-04-10T16:38:14.790Z,80924.97
2024-04-10T16:39:56.388Z,80927.34
2024-04-10T16:41:37.899Z,80923.97
2024-04-10T16:43:19.358Z,80925.78
2024-04-10T16:45:00.972Z,80935.72
2024-04-10T16:46:42.591Z,80932.13
2024-04-10T16:48:24.121Z,80939.13
2024-04-10T16:50:05.699Z,80936.63
2024-04-10T16:51:47.181Z,80940.31
2024-04-10T16:53:28.950Z,80945.06
2024-04-10T16:55:10.434Z,80954.47
2024-04-10T16:56:51.969Z,80953.41
2024-04-10T16:58:33.429Z,80954.00
2024-04-10T17:00:14.902Z,80964.19
2024-04-10T17:01:56.358Z,80958.97
2024-04-10T17:03:37.933Z,80951.50
2024-04-10T17:05:19.541Z,80950.16
2024-04-10T17:07:01.075Z,80951.81
2024-04-10T17:08:42.648Z,80966.75
2024-04-10T17:10:24.249Z,80969.53
2024-04-10T17:12:05.717Z,80968.47
2024-04-10T17:13:47.187Z,80971.06
2024-04-10T17:15:28.628Z,80974.47
2024-04-10T17:17:10.115Z,80979.34
2024-04-10T17:18:51.605Z,80990.78
2024-04-10T17:20:33.107Z,80990.06
2024-04-10T17:22:14.692Z,81002.41
2024-04-10T17:23:56.224Z,80995.09
2024-04-10T17:25:38.157Z,81003.47
2024-04-10T17:27:19.647Z,81001.25
2024-04-10T17:29:08.274Z,81009.88
2024-04-10T17:30:56.910Z,81005.44
2024-04-10T17:32:38.468Z,81008.81
2024-04-10T17:34:20.314Z,81002.75
2024-04-10T17:36:02.213Z,81005.72
2024-04-10T17:37:43.714Z,80996.56
2024-04-10T17:39:25.149Z,81007.75
2024-04-10T17:41:06.599Z,81012.44
2024-04-10T17:42:48.089Z,81007.75
2024-04-10T17:44:29.553Z,81007.81
2024-04-10T17:46:11.040Z,81007.97
2024-04-10T17:47:52.633Z,81012.16
2024-04-10T17:49:34.125Z,81004.16
2024-04-10T17:51:15.694Z,81009.69
2024-04-10T17:52:57.185Z,81007.56
2024-04-10T17:54:38.641Z,81004.00
2024-04-10T17:56:20.195Z,81002.38
2024-04-10T17:58:01.793Z,81007.69
2024-04-10T17:59:43.312Z,81021.50
2024-04-10T18:01:24.856Z,81022.59
2024-04-10T18:03:06.502Z,81017.44
2024-04-10T18:04:48.012Z,81015.88
2024-04-10T18:06:29.465Z,81013.97
2024-04-10T18:08:10.943Z,81010.00
2024-04-10T18:09:52.466Z,81012.47
2024-04-10T18:11:33.984Z,81010.19
2024-04-10T18:13:15.535Z,81012.75
2024-04-10T18:14:57.063Z,81015.19
2024-04-10T18:16:38.725Z,81016.22
2024-04-10T18:18:20.429Z,81020.31
2024-04-10T18:20:02.304Z,81027.53
2024-04-10T18:21:43.870Z,81020.66
2024-04-10T18:23:25.382Z,81022.75
2024-04-10T18:25:06.843Z,81028.13
2024-04-10T18:26:48.376Z,81035.13
2024-04-10T18:28:29.877Z,81038.03
2024-04-10T18:30:11.413Z,81041.84
2024-04-10T18:31:52.935Z,81037.00
2024-04-10T18:33:34.735Z,81043.75
2024-04-10T18:35:16.417Z,81042.31
2024-04-10T18:36:57.983Z,81051.59
2024-04-10T18:38:39.473Z,81048.81
2024-04-10T18:40:20.959Z,81051.59
2024-04-10T18:42:02.462Z,81044.72
2024-04-10T18:43:43.982Z,81052.53
2024-04-10T18:45:25.460Z,81052.84
2024-04-10T18:47:06.877Z,81047.69
2024-04-10T18:48:48.520Z,81055.50
2024-04-10T18:50:30.058Z,81053.78
2024-04-10T18:52:11.558Z,81049.59
2024-04-10T18:53:53.071Z,81053.81
2024-04-10T18:55:34.541Z,81052.84
2024-04-10T18:57:15.973Z,81054.47
2024-04-10T18:58:57.492Z,81058.66
2024-04-10T19:00:38.953Z,81058.56
2024-04-10T19:02:20.557Z,81060.84
2024-04-10T19:05:38.563Z,81061.03
2024-04-10T19:07:20.203Z,81069.66
2024-04-10T19:09:01.773Z,81082.94
2024-04-10T19:10:44.048Z,81078.16
2024-04-10T19:12:25.702Z,81085.81
2024-04-10T19:14:07.222Z,81090.75
2024-04-10T19:15:48.738Z,81087.44
2024-04-10T19:17:30.309Z,81085.53
2024-04-10T19:19:11.878Z,81077.31
2024-04-10T19:20:53.492Z,81099.97
2024-04-10T19:22:34.948Z,81086.94
2024-04-10T19:24:16.589Z,81085.53
2024-04-10T19:25:58.122Z,81084.47
2024-04-10T19:27:39.589Z,81090.50
2024-04-10T19:29:21.074Z,81082.09
2024-04-10T19:31:02.655Z,81085.13
2024-04-10T19:32:44.243Z,81072.63
2024-04-10T19:34:25.958Z,81079.66
2024-04-10T19:36:07.687Z,81078.91
2024-04-10T19:37:49.290Z,81079.59
2024-04-10T19:39:30.730Z,81074.25
2024-04-10T19:41:12.214Z,81082.34
2024-04-10T19:42:53.711Z,81082.47
2024-04-10T19:44:35.181Z,81075.00
2024-04-10T19:46:16.780Z,81068.66
2024-04-10T19:47:58.465Z,81074.28
2024-04-10T19:49:39.963Z,81078.38
2024-04-10T19:51:21.481Z,81082.19
2024-04-10T19:53:03.012Z,81077.47
2024-04-10T19:54:44.470Z,81075.09
2024-04-10T19:56:26.028Z,81074.72
2024-04-10T19:58:07.551Z,81078.63